Time;durP1;ratioP1;P1;durP2;ratioP2;P2;SDS_P1;SDS_P2;PMS_P1;PMS_P2;Temp;Humidity;BMP_temperature;BMP_pressure;BME280_temperature;BME280_humidity;BME280_pressure;Samples;Min_cycle;Max_cycle;Signal;HPM_P1;HPM_P2
2023/08/08 00:01:21;;;;;;;0.93;0.70;;;23.00;71.40;;;;;;4955636;28;20393;-84
2023/08/08 00:03:46;;;;;;;0.60;0.60;;;23.00;71.00;;;;;;4982868;28;20037;-85
2023/08/08 00:06:12;;;;;;;0.65;0.60;;;23.00;71.00;;;;;;4952861;28;20139;-84
2023/08/08 00:08:38;;;;;;;0.65;0.57;;;22.90;71.20;;;;;;4982220;28;20474;-85
2023/08/08 00:11:04;;;;;;;1.42;0.80;;;22.90;71.20;;;;;;4980253;28;20048;-87
2023/08/08 00:13:30;;;;;;;0.98;0.90;;;22.90;71.20;;;;;;4985464;28;20026;-87
2023/08/08 00:15:55;;;;;;;1.25;0.60;;;22.90;71.20;;;;;;4966061;28;20058;-87
2023/08/08 00:18:21;;;;;;;1.38;0.68;;;22.90;71.30;;;;;;4984691;28;20386;-87
2023/08/08 00:20:47;;;;;;;2.28;0.70;;;22.80;70.40;;;;;;4969779;28;20039;-87
2023/08/08 00:23:12;;;;;;;0.95;0.63;;;22.80;70.20;;;;;;4975790;28;20022;-86
2023/08/08 00:25:38;;;;;;;0.98;0.50;;;22.70;70.30;;;;;;4982230;28;20460;-85
2023/08/08 00:28:04;;;;;;;1.08;0.50;;;22.70;70.80;;;;;;4979654;28;20058;-85
2023/08/08 00:30:30;;;;;;;1.27;0.60;;;22.60;70.20;;;;;;4957786;28;20074;-85
2023/08/08 00:32:55;;;;;;;0.77;0.50;;;22.70;70.20;;;;;;4974233;28;20033;-85
2023/08/08 00:35:21;;;;;;;1.80;0.55;;;22.70;70.10;;;;;;4975969;28;20042;-86
2023/08/08 00:37:47;;;;;;;1.33;0.60;;;22.70;70.00;;;;;;4960576;28;20034;-86
2023/08/08 00:40:13;;;;;;;0.68;0.52;;;22.70;70.20;;;;;;4975256;28;20034;-86
2023/08/08 00:42:39;;;;;;;1.58;0.65;;;22.70;70.00;;;;;;4976398;28;20542;-86
2023/08/08 00:45:05;;;;;;;0.93;0.40;;;22.70;70.20;;;;;;4963500;28;20042;-85
2023/08/08 00:47:32;;;;;;;0.50;0.38;;;22.70;69.70;;;;;;4982316;28;20077;-84
2023/08/08 00:49:59;;;;;;;1.20;0.40;;;22.70;70.00;;;;;;4975230;28;20066;-83
2023/08/08 00:52:39;;;;;;;1.25;0.70;;;22.60;69.80;;;;;;4974930;28;20034;-83
2023/08/08 00:55:07;;;;;;;0.45;0.40;;;22.60;69.80;;;;;;4950811;28;20101;-83
2023/08/08 00:57:35;;;;;;;0.60;0.40;;;22.60;69.90;;;;;;4984035;28;20476;-83
2023/08/08 01:00:01;;;;;;;0.90;0.32;;;22.60;69.80;;;;;;4972656;28;20050;-83
2023/08/08 01:02:26;;;;;;;0.30;0.30;;;22.60;69.90;;;;;;4968832;28;20481;-83
2023/08/08 01:04:52;;;;;;;0.40;0.40;;;22.60;70.40;;;;;;4972574;28;20034;-83
2023/08/08 01:07:30;;;;;;;0.63;0.43;;;22.70;70.20;;;;;;4972243;28;20055;-83
2023/08/08 01:10:06;;;;;;;0.32;0.20;;;22.60;70.00;;;;;;4975188;28;20026;-83
2023/08/08 01:12:38;;;;;;;0.70;0.50;;;22.60;70.00;;;;;;4973143;28;20025;-84
2023/08/08 01:15:06;;;;;;;1.38;0.50;;;22.60;70.60;;;;;;4971997;28;20096;-84
2023/08/08 01:17:33;;;;;;;1.13;0.40;;;22.60;70.10;;;;;;4988303;28;20461;-84
2023/08/08 01:19:58;;;;;;;1.67;0.40;;;22.50;70.20;;;;;;4977214;28;20027;-84
2023/08/08 01:22:35;;;;;;;0.90;0.60;;;22.50;70.40;;;;;;4981984;28;20031;-83
2023/08/08 01:25:02;;;;;;;1.83;0.35;;;22.50;70.40;;;;;;4975578;28;20441;-83
2023/08/08 01:27:28;;;;;;;0.65;0.38;;;22.50;70.50;;;;;;4976979;28;20015;-85
2023/08/08 01:29:54;;;;;;;0.90;0.40;;;22.50;70.50;;;;;;4977403;28;20019;-84
2023/08/08 01:32:19;;;;;;;0.40;0.40;;;22.50;70.20;;;;;;4971972;28;20508;-85
2023/08/08 01:34:45;;;;;;;0.80;0.40;;;22.50;70.40;;;;;;4974800;28;20030;-85
2023/08/08 01:37:19;;;;;;;0.63;0.47;;;22.50;70.50;;;;;;4971705;28;20050;-84
2023/08/08 01:39:46;;;;;;;2.67;0.40;;;22.40;70.50;;;;;;4981695;28;20034;-85
2023/08/08 01:42:14;;;;;;;1.50;0.50;;;22.40;70.70;;;;;;4955979;28;20039;-85
2023/08/08 01:44:41;;;;;;;0.77;0.40;;;22.40;70.90;;;;;;4957347;28;20038;-85
2023/08/08 01:47:08;;;;;;;1.20;0.52;;;22.30;70.60;;;;;;4969796;28;20070;-85
2023/08/08 01:49:34;;;;;;;0.55;0.40;;;22.30;70.70;;;;;;4974309;28;20710;-86
2023/08/08 01:51:59;;;;;;;0.68;0.40;;;22.30;70.70;;;;;;4971496;28;20113;-85
2023/08/08 01:54:25;;;;;;;1.15;0.50;;;22.30;70.50;;;;;;4973282;28;20029;-85
2023/08/08 01:56:51;;;;;;;1.23;0.68;;;22.20;70.60;;;;;;4972196;28;20038;-85
2023/08/08 01:59:17;;;;;;;1.05;0.50;;;22.20;70.70;;;;;;4973490;28;20041;-84
2023/08/08 02:01:42;;;;;;;0.70;0.50;;;22.20;70.50;;;;;;4976146;28;20093;-84
2023/08/08 02:04:08;;;;;;;0.65;0.40;;;22.20;70.30;;;;;;4968238;28;20011;-85
2023/08/08 02:06:34;;;;;;;2.22;0.50;;;22.20;70.10;;;;;;4965356;28;20124;-84
2023/08/08 02:08:59;;;;;;;0.68;0.40;;;22.20;69.90;;;;;;4975545;28;20027;-84
2023/08/08 02:11:25;;;;;;;0.40;0.40;;;22.20;69.70;;;;;;4951463;28;20087;-83
2023/08/08 02:13:51;;;;;;;0.60;0.40;;;22.10;69.70;;;;;;4974222;28;20374;-84
2023/08/08 02:16:16;;;;;;;0.73;0.35;;;22.20;69.60;;;;;;4967645;28;20031;-84
2023/08/08 02:18:42;;;;;;;0.38;0.38;;;22.10;69.40;;;;;;4982435;28;20106;-84
2023/08/08 02:21:08;;;;;;;0.70;0.30;;;22.20;69.60;;;;;;4974758;28;20043;-84
2023/08/08 02:23:34;;;;;;;1.23;0.30;;;22.10;69.50;;;;;;4987901;28;20030;-84
2023/08/08 02:26:00;;;;;;;0.60;0.40;;;22.10;69.30;;;;;;4963871;28;20065;-84
2023/08/08 02:28:26;;;;;;;2.45;0.57;;;22.10;69.30;;;;;;4962655;28;20033;-84
2023/08/08 02:30:52;;;;;;;2.35;0.50;;;22.00;69.20;;;;;;4951324;28;20038;-84
2023/08/08 02:33:19;;;;;;;0.20;0.20;;;22.00;69.40;;;;;;4969231;28;20555;-84
2023/08/08 02:35:44;;;;;;;1.95;0.40;;;22.00;69.40;;;;;;4974036;28;20086;-86
2023/08/08 02:38:10;;;;;;;1.20;0.60;;;22.00;69.30;;;;;;4954898;28;20022;-85
2023/08/08 02:40:36;;;;;;;0.95;0.50;;;22.00;69.40;;;;;;4961402;28;20038;-85
2023/08/08 02:43:02;;;;;;;0.68;0.30;;;22.00;69.70;;;;;;4974906;28;20018;-85
2023/08/08 02:45:27;;;;;;;0.65;0.40;;;22.00;69.50;;;;;;4983196;28;20069;-85
2023/08/08 02:47:53;;;;;;;0.57;0.40;;;22.00;69.40;;;;;;4977768;28;20471;-85
2023/08/08 02:50:19;;;;;;;0.70;0.40;;;21.90;68.60;;;;;;4950087;28;20031;-85
2023/08/08 02:52:45;;;;;;;2.47;0.75;;;21.90;69.20;;;;;;4976177;28;20027;-85
2023/08/08 02:55:11;;;;;;;0.65;0.40;;;21.90;69.00;;;;;;4973245;28;20039;-85
2023/08/08 02:57:36;;;;;;;0.30;0.30;;;21.90;69.00;;;;;;4963461;28;20090;-85
2023/08/08 03:00:03;;;;;;;2.95;0.40;;;21.90;69.20;;;;;;4957010;28;20537;-85
2023/08/08 03:05:00;;;;;;;1.63;0.40;;;21.90;69.00;;;;;;4789978;23;1151958;-85
2023/08/08 03:07:25;;;;;;;1.23;0.47;;;21.90;69.20;;;;;;4970064;28;20035;-85
2023/08/08 03:09:51;;;;;;;1.90;0.50;;;21.80;69.20;;;;;;4972563;28;20106;-86
2023/08/08 03:12:17;;;;;;;2.78;0.40;;;21.80;69.20;;;;;;4974097;28;20034;-87
2023/08/08 03:14:42;;;;;;;2.05;0.47;;;21.80;69.40;;;;;;4979522;28;20034;-86
2023/08/08 03:17:08;;;;;;;0.30;0.30;;;21.70;69.50;;;;;;4956499;28;20358;-86
2023/08/08 03:19:34;;;;;;;0.40;0.40;;;21.70;69.40;;;;;;4966844;28;20081;-87
2023/08/08 03:21:59;;;;;;;0.60;0.50;;;21.70;69.40;;;;;;4961713;28;20033;-84
2023/08/08 03:24:25;;;;;;;1.58;0.30;;;21.70;69.60;;;;;;4991380;28;20026;-84
2023/08/08 03:26:51;;;;;;;0.60;0.30;;;21.70;69.60;;;;;;4966221;28;20034;-84
2023/08/08 03:29:16;;;;;;;0.47;0.47;;;21.70;69.80;;;;;;4987590;28;20054;-76
2023/08/08 03:31:42;;;;;;;1.50;0.40;;;21.70;70.00;;;;;;4980366;28;20887;-76
2023/08/08 03:34:08;;;;;;;1.05;0.40;;;21.70;69.90;;;;;;4980227;28;20034;-75
2023/08/08 03:36:33;;;;;;;0.57;0.43;;;21.60;69.80;;;;;;4985614;28;20035;-75
2023/08/08 03:38:59;;;;;;;1.60;0.40;;;21.60;70.50;;;;;;4980116;28;20043;-76
2023/08/08 03:41:24;;;;;;;2.88;0.40;;;21.60;70.20;;;;;;4982656;28;20043;-76
2023/08/08 03:43:50;;;;;;;1.58;0.60;;;21.50;70.30;;;;;;4979754;28;20480;-76
2023/08/08 03:46:16;;;;;;;1.55;0.40;;;21.50;70.90;;;;;;4957092;28;20041;-76
2023/08/08 03:48:41;;;;;;;1.20;0.60;;;21.50;70.30;;;;;;4984224;28;20358;-75
2023/08/08 03:51:07;;;;;;;0.47;0.30;;;21.40;70.20;;;;;;4990291;28;20037;-75
2023/08/08 03:53:33;;;;;;;5.20;0.63;;;21.40;70.10;;;;;;4987530;28;20030;-77
2023/08/08 03:55:59;;;;;;;0.70;0.50;;;21.40;70.20;;;;;;4960867;28;20401;-76
2023/08/08 03:58:24;;;;;;;1.73;0.35;;;21.50;70.20;;;;;;4972401;28;20047;-76
2023/08/08 04:00:51;;;;;;;0.52;0.47;;;21.50;69.90;;;;;;4976112;28;20460;-75
2023/08/08 04:03:18;;;;;;;0.60;0.40;;;21.50;69.70;;;;;;4984694;28;20103;-77
2023/08/08 04:05:47;;;;;;;1.45;0.40;;;21.40;69.50;;;;;;4986169;28;20039;-77
2023/08/08 04:08:14;;;;;;;0.60;0.30;;;21.40;69.50;;;;;;4990008;28;20109;-77
2023/08/08 04:10:39;;;;;;;1.35;0.55;;;21.30;69.20;;;;;;4990677;28;20093;-77
2023/08/08 04:13:05;;;;;;;0.73;0.40;;;21.30;69.50;;;;;;4965829;28;20022;-77
2023/08/08 04:15:31;;;;;;;1.40;0.70;;;21.30;69.40;;;;;;4974675;28;20046;-78
2023/08/08 04:17:56;;;;;;;0.85;0.60;;;21.20;68.90;;;;;;4980394;28;20105;-77
2023/08/08 04:20:22;;;;;;;0.57;0.40;;;21.20;69.50;;;;;;4991182;28;20034;-76
2023/08/08 04:22:48;;;;;;;1.65;0.55;;;21.20;69.60;;;;;;4969989;28;20026;-77
2023/08/08 04:25:14;;;;;;;2.97;0.50;;;21.20;69.50;;;;;;4986982;28;20457;-76
2023/08/08 04:27:40;;;;;;;3.65;0.63;;;21.20;69.50;;;;;;4976582;28;20027;-77
2023/08/08 04:30:08;;;;;;;0.80;0.52;;;21.20;69.50;;;;;;4990268;28;20551;-76
2023/08/08 04:32:34;;;;;;;2.58;0.52;;;21.20;69.50;;;;;;4971258;28;20031;-75
2023/08/08 04:35:00;;;;;;;0.43;0.43;;;21.30;69.30;;;;;;4983823;28;20034;-75
2023/08/08 04:37:25;;;;;;;0.82;0.52;;;21.30;69.30;;;;;;4980557;28;20481;-75
2023/08/08 04:39:51;;;;;;;1.70;0.50;;;21.20;69.20;;;;;;4988065;28;20034;-76
2023/08/08 04:42:17;;;;;;;1.80;0.63;;;21.30;69.20;;;;;;4972476;28;20062;-76
2023/08/08 04:44:42;;;;;;;3.10;0.50;;;21.30;69.10;;;;;;4988881;28;20041;-75
2023/08/08 04:47:08;;;;;;;1.42;0.50;;;21.30;69.00;;;;;;4980055;28;20027;-76
2023/08/08 04:49:34;;;;;;;3.80;0.88;;;21.40;69.00;;;;;;4983237;28;20085;-76
2023/08/08 04:51:59;;;;;;;1.08;0.57;;;21.40;69.10;;;;;;4987431;28;20567;-76
2023/08/08 04:54:25;;;;;;;0.98;0.38;;;21.40;68.40;;;;;;4991140;28;20044;-76
2023/08/08 04:56:51;;;;;;;0.88;0.55;;;21.50;68.50;;;;;;4976816;28;20022;-75
2023/08/08 04:59:16;;;;;;;0.50;0.45;;;21.40;68.40;;;;;;4975165;28;20042;-76
2023/08/08 05:01:42;;;;;;;1.63;0.60;;;21.40;68.40;;;;;;4979275;28;20543;-75
2023/08/08 05:04:08;;;;;;;0.80;0.50;;;21.40;68.60;;;;;;4975356;28;20480;-78
2023/08/08 05:06:34;;;;;;;1.00;0.43;;;21.40;68.60;;;;;;4981173;28;20047;-77
2023/08/08 05:08:59;;;;;;;2.10;0.60;;;21.40;68.40;;;;;;4963705;28;20023;-76
2023/08/08 05:11:25;;;;;;;1.13;0.50;;;21.40;68.30;;;;;;4956303;28;20083;-76
2023/08/08 05:13:51;;;;;;;1.13;0.43;;;21.50;68.20;;;;;;4981506;28;20523;-75
2023/08/08 05:16:17;;;;;;;0.60;0.40;;;21.50;68.10;;;;;;4978323;28;20049;-76
2023/08/08 05:18:45;;;;;;;1.55;0.57;;;21.50;68.00;;;;;;4978640;28;20034;-76
2023/08/08 05:21:10;;;;;;;0.60;0.40;;;21.50;67.90;;;;;;4983306;28;20093;-77
2023/08/08 05:23:36;;;;;;;0.55;0.30;;;21.50;67.90;;;;;;4954422;28;20030;-77
2023/08/08 05:26:03;;;;;;;0.50;0.40;;;21.50;67.80;;;;;;4952602;28;20058;-77
2023/08/08 05:28:29;;;;;;;0.30;0.30;;;21.50;68.00;;;;;;4970536;28;20030;-76
2023/08/08 05:30:54;;;;;;;1.60;0.68;;;21.50;67.10;;;;;;4978231;28;20038;-77
2023/08/08 05:33:20;;;;;;;1.70;0.50;;;21.50;66.80;;;;;;4974541;28;20026;-78
2023/08/08 05:35:46;;;;;;;0.50;0.40;;;21.40;67.40;;;;;;4973219;28;20088;-78
2023/08/08 05:38:11;;;;;;;2.00;0.40;;;21.50;67.40;;;;;;4971537;28;20057;-77
2023/08/08 05:40:37;;;;;;;0.85;0.50;;;21.50;68.10;;;;;;4950199;28;20051;-77
2023/08/08 05:43:03;;;;;;;0.43;0.32;;;21.50;67.50;;;;;;4967329;28;20034;-77
2023/08/08 05:45:29;;;;;;;1.70;0.50;;;21.50;67.30;;;;;;4955282;28;20031;-77
2023/08/08 05:47:56;;;;;;;2.78;0.50;;;21.50;67.30;;;;;;4973417;28;20038;-76
2023/08/08 05:50:21;;;;;;;0.82;0.38;;;21.60;67.30;;;;;;4974700;28;20042;-78
2023/08/08 05:52:47;;;;;;;0.80;0.40;;;21.60;67.30;;;;;;4974645;28;20485;-80
2023/08/08 05:55:13;;;;;;;0.68;0.57;;;21.60;67.10;;;;;;4974416;28;20505;-78
2023/08/08 05:57:39;;;;;;;2.63;0.50;;;21.60;67.20;;;;;;4973721;28;20114;-81
2023/08/08 06:00:05;;;;;;;3.35;0.60;;;21.60;66.80;;;;;;4977339;28;20062;-78
2023/08/08 06:02:31;;;;;;;0.73;0.40;;;21.70;66.20;;;;;;4977106;28;20026;-78
2023/08/08 06:04:57;;;;;;;2.58;0.50;;;21.70;66.30;;;;;;4951348;28;20042;-78
2023/08/08 06:07:23;;;;;;;0.55;0.40;;;21.80;66.20;;;;;;4956311;28;20033;-78
2023/08/08 06:09:48;;;;;;;1.70;0.60;;;21.80;65.90;;;;;;4973441;28;20023;-78
2023/08/08 06:12:14;;;;;;;1.30;0.45;;;21.90;66.00;;;;;;4974511;28;20042;-85
2023/08/08 06:14:40;;;;;;;0.55;0.40;;;22.00;66.10;;;;;;4972781;28;20659;-84
2023/08/08 06:17:05;;;;;;;0.90;0.50;;;22.00;65.70;;;;;;4973233;28;20031;-83
2023/08/08 06:19:31;;;;;;;0.88;0.35;;;22.10;65.80;;;;;;4973634;28;20117;-83
2023/08/08 06:21:57;;;;;;;0.40;0.30;;;22.10;65.70;;;;;;4973166;28;20030;-84
2023/08/08 06:24:22;;;;;;;1.02;0.43;;;22.10;65.50;;;;;;4973537;28;20023;-82
2023/08/08 06:26:48;;;;;;;0.50;0.30;;;22.20;65.50;;;;;;4973165;28;20482;-83
2023/08/08 06:29:14;;;;;;;0.35;0.35;;;22.20;65.40;;;;;;4973412;28;20027;-83
2023/08/08 06:31:40;;;;;;;0.98;0.40;;;22.30;65.30;;;;;;4973702;28;20377;-83
2023/08/08 06:34:06;;;;;;;0.50;0.30;;;22.30;65.30;;;;;;4965374;28;20477;-83
2023/08/08 06:36:32;;;;;;;1.08;0.40;;;22.30;65.20;;;;;;4973811;28;20034;-84
2023/08/08 06:38:58;;;;;;;0.68;0.40;;;22.30;65.30;;;;;;4973892;28;20033;-84
2023/08/08 06:41:23;;;;;;;0.65;0.40;;;22.30;65.40;;;;;;4973662;28;20076;-83
2023/08/08 06:43:49;;;;;;;0.45;0.40;;;22.40;65.30;;;;;;4968322;28;20027;-84
2023/08/08 06:46:15;;;;;;;1.10;0.43;;;22.40;65.20;;;;;;4955876;28;20035;-83
2023/08/08 06:48:44;;;;;;;0.90;0.30;;;22.40;65.50;;;;;;4973121;28;20027;-83
2023/08/08 06:51:10;;;;;;;1.75;0.32;;;22.50;65.00;;;;;;4956662;28;20047;-83
2023/08/08 06:53:36;;;;;;;0.75;0.40;;;22.50;65.20;;;;;;4966286;28;20101;-84
2023/08/08 06:56:01;;;;;;;1.52;0.60;;;22.50;64.80;;;;;;4973652;28;20047;-84
2023/08/08 06:58:27;;;;;;;1.02;0.43;;;22.50;65.00;;;;;;4955704;28;20058;-83
2023/08/08 07:00:53;;;;;;;1.17;0.35;;;22.50;65.00;;;;;;4973371;28;20027;-83
2023/08/08 07:03:18;;;;;;;2.00;0.30;;;22.60;65.40;;;;;;4955097;28;20035;-83
2023/08/08 07:05:44;;;;;;;0.93;0.45;;;22.70;65.20;;;;;;4973578;28;20094;-83
2023/08/08 07:08:10;;;;;;;1.95;0.75;;;22.70;65.00;;;;;;4973787;28;20102;-83
2023/08/08 07:10:36;;;;;;;1.42;0.40;;;22.70;64.90;;;;;;4973484;28;20039;-83
2023/08/08 07:13:02;;;;;;;2.38;0.50;;;22.80;65.10;;;;;;4968838;28;20030;-83
2023/08/08 07:15:27;;;;;;;1.35;0.40;;;22.90;64.90;;;;;;4972041;28;20022;-83
2023/08/08 07:17:53;;;;;;;1.35;0.40;;;22.90;64.80;;;;;;4973701;28;20030;-83
2023/08/08 07:20:19;;;;;;;0.38;0.30;;;23.00;64.70;;;;;;4973581;28;20027;-85
2023/08/08 07:22:46;;;;;;;0.63;0.40;;;23.00;64.50;;;;;;4974890;28;21384;-87
2023/08/08 07:25:11;;;;;;;1.02;0.47;;;23.10;64.00;;;;;;4977874;28;20011;-84
2023/08/08 07:27:38;;;;;;;3.53;0.50;;;23.10;63.90;;;;;;4976814;28;20038;-84
2023/08/08 07:30:06;;;;;;;0.75;0.30;;;23.20;63.60;;;;;;4976866;28;20473;-84
2023/08/08 07:32:33;;;;;;;0.93;0.45;;;23.20;63.50;;;;;;4973476;28;20030;-83
2023/08/08 07:35:01;;;;;;;1.58;0.47;;;23.30;63.40;;;;;;4976820;28;20027;-83
2023/08/08 07:37:26;;;;;;;2.58;0.40;;;23.30;63.10;;;;;;4976682;28;20026;-83
2023/08/08 07:39:52;;;;;;;0.50;0.32;;;23.30;63.30;;;;;;4975817;28;20031;-83
2023/08/08 07:42:18;;;;;;;0.50;0.40;;;23.40;63.60;;;;;;4976085;28;20031;-83
2023/08/08 07:44:43;;;;;;;1.02;0.60;;;23.40;63.50;;;;;;4976851;28;20054;-84
2023/08/08 07:47:09;;;;;;;0.28;0.25;;;23.50;62.40;;;;;;4976808;28;20023;-83
2023/08/08 07:49:35;;;;;;;0.47;0.15;;;23.60;62.80;;;;;;4979520;28;20023;-77
2023/08/08 07:52:01;;;;;;;4.05;0.77;;;23.60;62.50;;;;;;4976382;28;20066;-77
2023/08/08 07:54:26;;;;;;;3.65;0.43;;;23.60;62.50;;;;;;4972533;28;20476;-77
2023/08/08 07:56:52;;;;;;;0.63;0.38;;;23.70;62.70;;;;;;4976536;28;20035;-77
2023/08/08 07:59:18;;;;;;;0.30;0.30;;;23.80;62.80;;;;;;4975258;28;20085;-77
2023/08/08 08:01:44;;;;;;;0.73;0.30;;;23.80;62.40;;;;;;4972040;28;20038;-78
2023/08/08 08:04:10;;;;;;;2.35;0.30;;;23.80;62.70;;;;;;4952939;28;20039;-78
2023/08/08 08:06:36;;;;;;;0.95;0.30;;;23.90;62.90;;;;;;4975675;28;20050;-78
2023/08/08 08:09:03;;;;;;;1.02;0.40;;;23.90;63.10;;;;;;4959012;28;20039;-79
2023/08/08 08:11:29;;;;;;;2.05;0.50;;;24.00;63.60;;;;;;4958086;28;20031;-76
2023/08/08 08:13:55;;;;;;;3.42;0.35;;;24.10;63.50;;;;;;4974928;28;20034;-78
2023/08/08 08:16:21;;;;;;;0.98;0.30;;;24.10;63.70;;;;;;4976026;28;20106;-83
2023/08/08 08:18:47;;;;;;;0.20;0.20;;;24.20;64.20;;;;;;4975045;28;20034;-84
2023/08/08 08:21:14;;;;;;;0.68;0.30;;;24.30;64.70;;;;;;4975395;28;20041;-83
2023/08/08 08:23:40;;;;;;;0.90;0.32;;;24.40;64.70;;;;;;4975213;28;20046;-85
2023/08/08 08:26:07;;;;;;;2.13;0.40;;;24.40;65.20;;;;;;4975020;28;20058;-84
2023/08/08 08:28:32;;;;;;;0.63;0.40;;;24.40;65.40;;;;;;4957279;28;20030;-78
2023/08/08 08:31:04;;;;;;;0.77;0.50;;;24.50;65.60;;;;;;4978142;28;20109;-78
2023/08/08 08:33:30;;;;;;;1.23;0.40;;;24.60;65.20;;;;;;4972285;28;20129;-85
2023/08/08 08:35:56;;;;;;;1.15;0.30;;;24.70;65.90;;;;;;4974860;28;20725;-86
2023/08/08 08:38:21;;;;;;;0.93;0.40;;;24.80;65.60;;;;;;4957978;28;20031;-86
2023/08/08 08:40:48;;;;;;;3.10;0.50;;;24.80;65.60;;;;;;4959066;28;20118;-85
2023/08/08 08:43:16;;;;;;;3.38;0.30;;;24.90;65.10;;;;;;4957073;28;20034;-85
2023/08/08 08:45:50;;;;;;;0.55;0.38;;;24.90;65.20;;;;;;4967945;28;20031;-84
2023/08/08 08:48:17;;;;;;;1.95;0.20;;;25.00;65.40;;;;;;4953097;28;20027;-86
2023/08/08 08:50:45;;;;;;;1.58;0.30;;;25.00;65.20;;;;;;4965293;28;20042;-86
2023/08/08 08:53:17;;;;;;;0.30;0.30;;;25.10;65.10;;;;;;4967175;28;20047;-79
2023/08/08 08:55:46;;;;;;;0.57;0.13;;;25.10;65.80;;;;;;4951215;28;20113;-84
2023/08/08 08:58:17;;;;;;;0.60;0.30;;;25.30;65.90;;;;;;4965147;28;20132;-84
2023/08/08 09:00:45;;;;;;;0.43;0.30;;;25.30;65.10;;;;;;4957208;28;20093;-83
2023/08/08 09:03:12;;;;;;;0.20;0.20;;;25.40;65.10;;;;;;4956970;28;20022;-82
2023/08/08 09:05:41;;;;;;;0.20;0.20;;;25.40;64.50;;;;;;4957870;28;20027;-82
2023/08/08 09:08:08;;;;;;;0.70;0.35;;;25.50;64.80;;;;;;4955244;28;20042;-83
2023/08/08 09:10:35;;;;;;;0.55;0.40;;;25.50;65.30;;;;;;4954287;28;20041;-83
2023/08/08 09:13:01;;;;;;;0.63;0.35;;;25.60;65.20;;;;;;4957378;28;20543;-84
2023/08/08 09:15:34;;;;;;;0.65;0.32;;;25.70;65.30;;;;;;4953010;28;20046;-77
2023/08/08 09:18:00;;;;;;;1.50;0.50;;;25.80;65.00;;;;;;4946919;28;20236;-77
2023/08/08 09:20:30;;;;;;;0.63;0.30;;;25.90;64.50;;;;;;4972363;28;20471;-77
2023/08/08 09:22:57;;;;;;;0.95;0.30;;;25.90;64.70;;;;;;4962185;28;20038;-85
2023/08/08 09:25:24;;;;;;;1.23;0.40;;;26.00;64.80;;;;;;4958044;28;20042;-85
2023/08/08 09:27:55;;;;;;;1.42;0.40;;;26.10;65.20;;;;;;4964356;28;20035;-84
2023/08/08 09:30:21;;;;;;;0.73;0.50;;;26.20;65.00;;;;;;4967155;28;20031;-78
2023/08/08 09:32:47;;;;;;;0.30;0.20;;;26.30;65.00;;;;;;4976010;28;20030;-84
2023/08/08 09:35:13;;;;;;;1.67;0.57;;;26.40;64.30;;;;;;4995888;28;20103;-84
2023/08/08 09:37:39;;;;;;;0.63;0.40;;;26.40;64.40;;;;;;4955624;28;20130;-84
2023/08/08 09:40:07;;;;;;;0.45;0.30;;;26.50;63.90;;;;;;4995780;28;20041;-84
2023/08/08 09:42:35;;;;;;;1.20;0.32;;;26.60;64.20;;;;;;4963912;28;20034;-83
2023/08/08 09:45:01;;;;;;;3.67;0.70;;;26.80;64.30;;;;;;4979637;28;20026;-82
2023/08/08 09:47:30;;;;;;;0.30;0.30;;;26.80;63.90;;;;;;4959066;28;20023;-86
2023/08/08 09:50:00;;;;;;;0.40;0.22;;;26.90;63.20;;;;;;4949422;28;20027;-85
2023/08/08 09:52:28;;;;;;;0.70;0.57;;;27.00;63.00;;;;;;4956670;28;20069;-77
2023/08/08 09:54:55;;;;;;;0.95;0.40;;;27.10;63.00;;;;;;4964961;28;20035;-77
2023/08/08 09:57:22;;;;;;;2.60;0.63;;;27.20;62.80;;;;;;4952218;28;20488;-76
2023/08/08 09:59:49;;;;;;;0.80;0.40;;;27.20;62.90;;;;;;4949040;28;20037;-77
2023/08/08 10:02:16;;;;;;;0.52;0.32;;;27.30;63.50;;;;;;4950264;28;20034;-76
2023/08/08 10:04:42;;;;;;;0.20;0.20;;;27.40;62.90;;;;;;4962813;28;20047;-77
2023/08/08 10:07:09;;;;;;;1.77;0.40;;;27.40;62.60;;;;;;4961721;28;20030;-77
2023/08/08 10:09:34;;;;;;;0.75;0.30;;;27.50;62.50;;;;;;4957304;28;20038;-77
2023/08/08 10:12:01;;;;;;;0.50;0.30;;;27.60;62.70;;;;;;4959184;28;20390;-84
2023/08/08 10:14:32;;;;;;;1.45;0.40;;;27.70;62.70;;;;;;4949266;28;20036;-77
2023/08/08 10:16:58;;;;;;;2.25;0.30;;;27.80;62.50;;;;;;4949789;28;20045;-77
2023/08/08 10:19:24;;;;;;;0.80;0.28;;;27.90;62.80;;;;;;4962327;28;20397;-77
2023/08/08 10:22:00;;;;;;;0.57;0.35;;;28.00;63.20;;;;;;4962978;28;20031;-76
2023/08/08 10:24:26;;;;;;;1.83;0.30;;;28.10;63.10;;;;;;4956539;28;20018;-78
2023/08/08 10:26:59;;;;;;;0.20;0.20;;;28.30;62.80;;;;;;4950125;28;20050;-84
2023/08/08 10:29:26;;;;;;;0.80;0.50;;;28.40;62.60;;;;;;4955396;28;20042;-77
2023/08/08 10:32:03;;;;;;;13.10;0.55;;;28.50;61.90;;;;;;4950039;28;20662;-76
2023/08/08 10:34:44;;;;;;;0.43;0.30;;;28.60;62.00;;;;;;4954489;28;20027;-78
2023/08/08 10:37:18;;;;;;;0.65;0.40;;;28.60;61.70;;;;;;4958213;28;20037;-78
2023/08/08 10:40:00;;;;;;;1.08;0.50;;;28.70;61.70;;;;;;4951764;28;20042;-78
2023/08/08 10:42:28;;;;;;;0.60;0.20;;;28.90;61.30;;;;;;4952340;28;20031;-78
2023/08/08 10:44:59;;;;;;;0.50;0.40;;;28.90;60.80;;;;;;4959123;28;20030;-77
2023/08/08 10:47:36;;;;;;;1.23;0.50;;;29.00;61.00;;;;;;4958977;28;20037;-78
2023/08/08 10:50:07;;;;;;;0.47;0.47;;;29.10;61.10;;;;;;4954436;28;20105;-77
2023/08/08 10:52:37;;;;;;;1.83;0.57;;;29.20;61.00;;;;;;4953913;28;20769;-78
2023/08/08 10:55:04;;;;;;;0.65;0.22;;;29.30;61.10;;;;;;4958204;28;20415;-78
2023/08/08 10:57:31;;;;;;;0.60;0.32;;;29.30;60.30;;;;;;4955454;28;20477;-78
2023/08/08 11:00:17;;;;;;;0.50;0.28;;;29.40;60.40;;;;;;4959827;28;20039;-77
2023/08/08 11:02:44;;;;;;;0.50;0.32;;;29.40;60.30;;;;;;4951925;28;20027;-78
2023/08/08 11:05:10;;;;;;;0.20;0.13;;;29.60;60.60;;;;;;4969945;28;20106;-87
2023/08/08 11:07:39;;;;;;;1.70;0.30;;;29.70;60.30;;;;;;4963325;28;20054;-88
2023/08/08 11:10:15;;;;;;;1.90;0.40;;;29.90;60.70;;;;;;4959776;28;20085;-87
2023/08/08 11:12:54;;;;;;;0.70;0.30;;;30.00;60.10;;;;;;4950009;28;20019;-85
2023/08/08 11:15:23;;;;;;;1.20;0.40;;;30.20;60.10;;;;;;4950323;28;20034;-85
2023/08/08 11:17:57;;;;;;;0.40;0.30;;;30.40;60.50;;;;;;4964244;28;20047;-86
2023/08/08 11:20:32;;;;;;;0.43;0.22;;;30.60;60.50;;;;;;4958484;28;20054;-86
2023/08/08 11:23:10;;;;;;;1.27;0.60;;;30.80;60.30;;;;;;4954213;28;20038;-85
2023/08/08 11:25:51;;;;;;;0.85;0.40;;;31.00;59.70;;;;;;4961009;28;20031;-85
2023/08/08 11:28:17;;;;;;;1.67;0.30;;;31.20;59.50;;;;;;4953328;28;20491;-85
2023/08/08 11:30:48;;;;;;;1.05;0.38;;;31.30;60.00;;;;;;4956199;28;20038;-87
2023/08/08 11:33:19;;;;;;;0.50;0.30;;;31.50;59.30;;;;;;4963762;28;20058;-87
2023/08/08 11:35:49;;;;;;;1.27;0.43;;;31.70;59.20;;;;;;4965404;28;20081;-87
2023/08/08 11:38:20;;;;;;;0.40;0.28;;;31.80;59.00;;;;;;4955537;28;20100;-85
2023/08/08 11:40:46;;;;;;;0.32;0.30;;;32.00;58.70;;;;;;4967639;28;20031;-78
2023/08/08 11:43:13;;;;;;;2.20;0.28;;;32.30;58.60;;;;;;4955296;28;20034;-77
2023/08/08 11:45:40;;;;;;;0.47;0.20;;;32.50;58.60;;;;;;4951247;28;20085;-77
2023/08/08 11:48:08;;;;;;;2.42;0.30;;;32.70;58.10;;;;;;4970653;28;20035;-77
2023/08/08 11:50:44;;;;;;;0.28;0.20;;;32.90;57.80;;;;;;4955947;28;20026;-77
2023/08/08 11:53:13;;;;;;;1.17;0.47;;;33.30;57.10;;;;;;4952997;28;20054;-77
2023/08/08 11:55:43;;;;;;;0.30;0.20;;;33.50;57.00;;;;;;4956444;28;20514;-86
2023/08/08 11:58:14;;;;;;;0.52;0.20;;;33.60;56.60;;;;;;4961400;28;20062;-77
2023/08/08 12:00:39;;;;;;;0.77;0.30;;;33.70;55.90;;;;;;4973265;28;20350;-86
2023/08/08 12:03:06;;;;;;;1.75;0.55;;;33.90;56.10;;;;;;4975957;28;20031;-87
2023/08/08 12:05:38;;;;;;;1.95;0.20;;;34.00;55.80;;;;;;4977571;28;20027;-78
2023/08/08 12:08:06;;;;;;;0.30;0.20;;;34.20;56.10;;;;;;4964055;28;20050;-78
2023/08/08 12:10:32;;;;;;;1.40;0.52;;;34.40;56.10;;;;;;4970025;28;20031;-78
2023/08/08 12:12:59;;;;;;;1.65;0.30;;;34.50;55.90;;;;;;4975705;28;20030;-87
2023/08/08 12:15:35;;;;;;;0.40;0.20;;;34.60;54.50;;;;;;4974900;28;20033;-87
2023/08/08 12:18:04;;;;;;;0.40;0.22;;;34.70;54.70;;;;;;4970640;28;20031;-78
2023/08/08 12:20:31;;;;;;;0.17;0.17;;;34.80;54.60;;;;;;4971763;28;20023;-87
2023/08/08 12:23:00;;;;;;;1.63;0.20;;;34.80;54.70;;;;;;4956582;28;20480;-87
2023/08/08 12:25:25;;;;;;;0.73;0.30;;;35.00;54.60;;;;;;4972136;28;20476;-88
2023/08/08 12:27:51;;;;;;;0.85;0.38;;;35.00;54.40;;;;;;4958429;28;20025;-75
2023/08/08 12:30:17;;;;;;;2.22;0.30;;;35.10;54.40;;;;;;4958122;28;20445;-78
2023/08/08 12:32:43;;;;;;;0.20;0.20;;;35.20;54.40;;;;;;4970187;28;20066;-78
2023/08/08 12:35:09;;;;;;;0.68;0.40;;;35.30;54.60;;;;;;4968838;28;20031;-77
2023/08/08 12:37:36;;;;;;;1.52;0.35;;;35.30;53.70;;;;;;4966504;28;20035;-79
2023/08/08 12:40:02;;;;;;;0.50;0.30;;;35.10;53.50;;;;;;4968556;28;20035;-78
2023/08/08 12:42:28;;;;;;;0.28;0.25;;;34.90;53.70;;;;;;4951896;28;20051;-78
2023/08/08 12:44:54;;;;;;;0.75;0.30;;;34.90;53.30;;;;;;4954346;28;20031;-78
2023/08/08 12:47:20;;;;;;;1.50;0.40;;;35.10;54.80;;;;;;4970648;28;20033;-78